Terminal Aerodrome Forecast
Issued by NWS

Home | Current Version | Previous Version | Graphics & Text | Print | Product List | Glossary On
Versions: 1 2 3 4 5 6 7 8 9 10 11 12 13 14 15 16 17 18 19 20
000
FTUS43 KABR 211400 AAB
TAFATY
TAF AMD
KATY 211447Z 2115/2212 15010KT 5SM BR OVC003
      TEMPO 2116/2118 SCT004
     FM211800 16012KT P6SM BKN250
     FM220900 30006KT P6SM OVC250=

USA.gov is the U.S. government's official web portal to all federal, state and local government web resources and services.